메인 페이지
METAR-TAF:

METAR-TAF

공항 :

반다라나이케 국제공항

콜롬보, 스리랑카

위도: 07-10N, 경도: 079-53E, 고도: 8m

현재 날씨관측

예보는 26분 전, 12:10시(UTC)에 발표되었습니다.
북북동5kt
온도 28°C
습도 62%
기압 1009 hPa
시정: 8000m
고도 4000ft 상공 구름 보통

METAR: VCBI 111210Z 03005KT 8000 SCT040 28/20 Q1009 NOSIG

시각: 18:06 (12:36 UTC)

예보

예보는 7 시간 36분 전, 05:00시(UTC)에 발표되었습니다.
예보 대상 시간: 11일 06시부터 12일 12시까지 (UTC)
북동10kt
시정: 8000m
고도 1800ft 상공 구름 조금
확률 30% :
일시적
11일 10시부터 11일 15시까지 (UTC)
고도 1600ft 상공 구름 보통
고도 2000ft 상공 구름 조금, 적란운.
전환 중
11일 16시부터 11일 18시까지 (UTC)
시정: 6000m
일시적
12일 00시부터 12일 03시까지 (UTC)
박무
전환 중
12일 05시부터 12일 06시까지 (UTC)
시정: 8000m

TAF: VCBI 110500Z 1106/1212 04010KT 8000 FEW018 TX29/1107Z TN23/1200Z PROB30 TEMPO 1110/1115 SCT016 FEW020CB BECMG 1116/1118 6000 TEMPO 1200/1203 BR BECMG 1205/1206 8000

4,000개 이상의 공항 관측 자료 및 예보 (METAR 및 TAF 보고).

지도상에서 검색 가능한 기상관측소가 노란 점과 빨간 점으로 표시되어 있습니다.

기상관측소 명을 보려면 표시 위로 마우스를 이동하세요.

날씨 관측과 예보를 보려면 클릭하세요.

지도 변경 : 확대하려면 엑스 표시가 있는 녹색 버튼, 축소하려면 빼기 표시가 있는 녹색 버튼, 다음 페이지의 지도를 보려면 녹색 화살표를 클릭하세요.


METAR-TAF: